This is the latest recevied weather packets stored in our database for station/object HB9HUT-13. If no packets are shown the sender has not sent any weather packets the latest 10 day(s).
| Time | Temp. | Humidity | Pressure | Rain* | Wind** | Luminosity | Snow |
|---|---|---|---|---|---|---|---|
| 1777804827 | 22.22° C | 36% | 846.5 hPa | - | - | - | - |
| 1777803924 | 22.22° C | 37% | 846.6 hPa | - | - | - | - |
| 1777803021 | 21.67° C | 33% | 846.7 hPa | - | - | - | - |
| 1777802118 | 21.67° C | 38% | 846.8 hPa | - | - | - | - |
| 1777801215 | 21.11° C | 35% | 846.9 hPa | - | - | - | - |
| 1777800312 | 20° C | 29% | 846.9 hPa | - | - | - | - |
| 1777799409 | 21.11° C | 40% | 846.9 hPa | - | - | - | - |
| 1777798506 | 21.11° C | 36% | 847 hPa | - | - | - | - |
| 1777797602 | 20° C | 37% | 847 hPa | - | - | - | - |
| 1777796700 | 19.44° C | 36% | 847.1 hPa | - | - | - | - |
| 1777795797 | 18.33° C | 35% | 847.1 hPa | - | - | - | - |
| 1777793991 | 16.11° C | 38% | 847.2 hPa | - | - | - | - |
| 1777793088 | 15° C | 38% | 847.2 hPa | - | - | - | - |
| 1777793087 | 15° C | 38% | 847.2 hPa | - | - | - | - |
| 1777792258 | 13.33° C | 36% | 847.2 hPa | - | - | - | - |
| 1777792185 | 13.33° C | 36% | 847.2 hPa | - | - | - | - |
| 1777792184 | 13.33° C | 36% | 847.2 hPa | - | - | - | - |
| 1777791282 | 13.33° C | 35% | 847.2 hPa | - | - | - | - |
| 1777791282 | 13.33° C | 35% | 847.2 hPa | - | - | - | - |
| 1777790379 | 13.89° C | 40% | 847.1 hPa | - | - | - | - |
| 1777790379 | 13.89° C | 40% | 847.1 hPa | - | - | - | - |
| 1777789477 | 12.22° C | 35% | 847.1 hPa | - | - | - | - |
| 1777788573 | 12.22° C | 39% | 847.1 hPa | - | - | - | - |
| 1777788573 | 12.22° C | 39% | 847.1 hPa | - | - | - | - |
| 1777787670 | 11.67° C | 39% | 847.1 hPa | - | - | - | - |
* Rain since midnight (hover to see other rain measurements)
** Current wind speed in m/s (hover to see current wind gust speed)